Time;durP1;ratioP1;P1;durP2;ratioP2;P2;SDS_P1;SDS_P2;PMS_P1;PMS_P2;Temp;Humidity;BMP_temperature;BMP_pressure;BME280_temperature;BME280_humidity;BME280_pressure;Samples;Min_cycle;Max_cycle;Signal;HPM_P1;HPM_P2
2022/07/06 00:02:14;;;;;;;9.98;5.45;;;;;;;9.98;85.48;102456.31;5112097;28;20067;-48
2022/07/06 00:04:39;;;;;;;12.63;5.78;;;;;;;9.97;85.95;102451.97;5113017;28;20033;-47
2022/07/06 00:07:04;;;;;;;10.57;6.00;;;;;;;9.97;85.83;102454.53;5112811;28;20130;-48
2022/07/06 00:09:30;;;;;;;13.98;6.53;;;;;;;9.95;86.50;102455.25;5112310;28;20030;-48
2022/07/06 00:11:55;;;;;;;13.27;5.90;;;;;;;9.83;86.66;102455.41;5115588;28;20042;-45
2022/07/06 00:14:20;;;;;;;12.90;5.85;;;;;;;9.72;86.73;102465.06;5117059;28;20504;-47
2022/07/06 00:16:46;;;;;;;14.73;6.68;;;;;;;9.74;87.62;102465.19;5116049;28;20042;-48
2022/07/06 00:19:11;;;;;;;13.43;6.13;;;;;;;9.63;87.47;102461.97;5116783;28;20455;-47
2022/07/06 00:21:37;;;;;;;15.40;6.47;;;;;;;9.58;87.77;102473.66;5116879;28;20016;-47
2022/07/06 00:24:03;;;;;;;12.57;6.85;;;;;;;9.50;87.66;102476.69;5116060;28;20031;-44
2022/07/06 00:26:28;;;;;;;15.60;6.68;;;;;;;9.46;87.49;102471.25;5116923;28;20031;-48
2022/07/06 00:28:53;;;;;;;15.55;6.95;;;;;;;9.43;88.30;102464.22;5116905;28;20107;-47
2022/07/06 00:31:19;;;;;;;13.23;6.43;;;;;;;9.33;88.10;102477.34;5115904;28;20027;-46
2022/07/06 00:33:45;;;;;;;11.20;6.60;;;;;;;9.35;88.63;102475.75;5116655;28;20020;-48
2022/07/06 00:36:10;;;;;;;12.45;6.25;;;;;;;9.32;88.50;102470.41;5116330;28;20020;-46
2022/07/06 00:38:35;;;;;;;16.25;7.47;;;;;;;9.37;89.67;102475.06;5115584;28;20031;-47
2022/07/06 00:41:01;;;;;;;13.73;6.65;;;;;;;9.26;88.80;102470.94;5116730;28;20079;-47
2022/07/06 00:43:26;;;;;;;18.20;7.68;;;;;;;9.34;89.81;102471.41;5116578;28;20024;-46
2022/07/06 00:45:51;;;;;;;16.35;7.55;;;;;;;9.29;89.40;102470.22;5115803;28;20475;-48
2022/07/06 00:48:17;;;;;;;15.77;6.85;;;;;;;9.26;89.04;102464.88;5116261;28;20019;-48
2022/07/06 00:50:42;;;;;;;14.75;6.97;;;;;;;9.22;89.07;102459.56;5116290;28;20050;-46
2022/07/06 00:53:08;;;;;;;12.63;6.85;;;;;;;9.22;89.16;102464.72;5115374;28;20031;-47
2022/07/06 00:55:39;;;;;;;13.98;7.20;;;;;;;9.25;90.17;102463.13;5116249;28;20069;-46
2022/07/06 00:58:05;;;;;;;17.55;8.95;;;;;;;9.26;90.62;102462.31;5115532;28;20024;-46
2022/07/06 01:00:31;;;;;;;16.58;8.00;;;;;;;9.29;90.08;102470.22;5115846;28;20035;-48
2022/07/06 01:02:57;;;;;;;18.10;8.73;;;;;;;9.35;91.33;102460.31;5116301;28;20023;-47
2022/07/06 01:05:23;;;;;;;22.27;7.47;;;;;;;9.32;90.80;102465.25;5114994;28;20028;-44
2022/07/06 01:07:50;;;;;;;16.38;8.05;;;;;;;9.39;90.96;102462.28;5116217;28;20027;-48
2022/07/06 01:10:17;;;;;;;14.63;7.65;;;;;;;9.39;90.66;102459.69;5116098;28;20030;-47
2022/07/06 01:12:44;;;;;;;21.27;8.50;;;;;;;9.40;91.07;102461.50;5115236;28;20077;-47
2022/07/06 01:15:31;;;;;;;16.38;8.02;;;;;;;9.35;91.23;102465.47;5115859;28;20102;-47
2022/07/06 01:17:57;;;;;;;19.50;8.30;;;;;;;9.35;91.25;102452.59;5115726;28;20030;-47
2022/07/06 01:20:25;;;;;;;18.02;8.10;;;;;;;9.32;91.28;102454.97;5114963;28;20020;-46
2022/07/06 01:22:52;;;;;;;15.20;7.55;;;;;;;9.25;90.80;102447.69;5115711;28;20024;-48
2022/07/06 01:25:18;;;;;;;14.25;8.30;;;;;;;9.23;91.28;102453.63;5115665;28;20028;-46
2022/07/06 01:27:44;;;;;;;16.58;8.07;;;;;;;9.26;91.23;102460.66;5114909;28;20038;-48
2022/07/06 01:30:13;;;;;;;16.50;7.63;;;;;;;9.19;91.08;102459.38;5115415;28;20019;-43
2022/07/06 01:32:39;;;;;;;18.58;7.95;;;;;;;9.22;91.96;102457.00;5115423;28;20024;-43
2022/07/06 01:35:06;;;;;;;16.30;7.97;;;;;;;9.23;91.86;102466.50;5114833;28;20102;-48
2022/07/06 01:37:31;;;;;;;18.60;9.10;;;;;;;9.26;91.61;102457.16;5115207;28;20036;-48
2022/07/06 01:40:05;;;;;;;19.63;8.45;;;;;;;9.27;91.99;102456.38;5115541;28;20030;-47
2022/07/06 01:42:30;;;;;;;18.80;8.80;;;;;;;9.22;91.91;102453.53;5114621;28;20038;-47
2022/07/06 01:44:56;;;;;;;19.05;8.43;;;;;;;9.28;91.51;102453.88;5115274;28;20106;-47
2022/07/06 01:47:21;;;;;;;17.77;8.70;;;;;;;9.27;91.54;102456.38;5114579;28;20058;-44
2022/07/06 01:49:47;;;;;;;17.75;8.85;;;;;;;9.26;91.73;102460.66;5115588;28;20023;-47
2022/07/06 01:52:12;;;;;;;17.00;8.65;;;;;;;9.27;91.88;102461.53;5115213;28;20015;-48
2022/07/06 01:54:37;;;;;;;18.48;8.75;;;;;;;9.22;91.74;102464.72;5114230;28;20156;-47
2022/07/06 01:57:03;;;;;;;17.00;9.20;;;;;;;9.23;91.92;102458.78;5115013;28;20163;-47
2022/07/06 01:59:28;;;;;;;15.88;9.20;;;;;;;9.18;91.72;102457.59;5114952;28;20385;-46
2022/07/06 02:01:54;;;;;;;18.42;9.43;;;;;;;9.18;91.68;102454.13;5113946;28;20440;-46
2022/07/06 02:04:19;;;;;;;22.35;10.13;;;;;;;9.20;92.59;102457.69;5115037;28;20023;-47
2022/07/06 02:06:44;;;;;;;19.33;10.10;;;;;;;9.15;92.09;102459.97;5114985;28;20026;-48
2022/07/06 02:09:10;;;;;;;23.77;9.73;;;;;;;9.15;92.48;102462.53;5113978;28;20031;-47
2022/07/06 02:11:35;;;;;;;17.00;9.70;;;;;;;9.11;91.91;102463.16;5114795;28;20028;-47
2022/07/06 02:14:00;;;;;;;21.30;9.48;;;;;;;9.08;92.42;102460.41;5114552;28;20027;-47
2022/07/06 02:16:26;;;;;;;17.33;9.77;;;;;;;9.02;92.22;102454.88;5113706;28;20348;-44
2022/07/06 02:18:51;;;;;;;20.77;9.45;;;;;;;8.94;92.33;102463.81;5114912;28;20045;-48
2022/07/06 02:21:16;;;;;;;18.65;10.57;;;;;;;8.92;92.47;102462.81;5114599;28;20425;-47
2022/07/06 02:23:42;;;;;;;16.35;10.10;;;;;;;8.85;92.32;102462.44;5113731;28;20024;-47
2022/07/06 02:26:07;;;;;;;17.88;10.32;;;;;;;8.82;92.71;102467.38;5114538;28;20035;-48
2022/07/06 02:28:32;;;;;;;18.92;11.27;;;;;;;8.79;93.03;102469.78;5114434;28;20020;-47
2022/07/06 02:30:57;;;;;;;25.52;11.18;;;;;;;8.80;93.57;102461.25;5113604;28;20101;-47
2022/07/06 02:33:23;;;;;;;20.88;10.85;;;;;;;8.68;92.94;102463.06;5113772;28;20560;-47
2022/07/06 02:35:48;;;;;;;21.40;10.88;;;;;;;8.68;93.15;102463.06;5114331;28;20061;-48
2022/07/06 02:38:13;;;;;;;23.52;11.93;;;;;;;8.70;94.23;102457.22;5113211;28;20027;-47
2022/07/06 02:40:39;;;;;;;20.27;11.85;;;;;;;8.60;93.99;102461.66;5114253;28;20024;-47
2022/07/06 02:43:04;;;;;;;21.90;12.32;;;;;;;8.60;94.06;102459.09;5114136;28;20468;-48
2022/07/06 02:45:31;;;;;;;21.65;12.20;;;;;;;8.59;94.09;102462.47;5113287;28;20058;-48
2022/07/06 02:47:57;;;;;;;26.88;13.73;;;;;;;8.59;94.60;102459.91;5114237;28;20022;-46
2022/07/06 02:50:23;;;;;;;26.88;14.23;;;;;;;8.60;95.22;102461.66;5113787;28;20387;-44
2022/07/06 02:52:48;;;;;;;24.58;13.85;;;;;;;8.64;95.22;102461.97;5113305;28;20467;-48
2022/07/06 02:55:13;;;;;;;27.95;14.32;;;;;;;8.67;95.16;102463.84;5113941;28;20020;-48
2022/07/06 02:57:38;;;;;;;24.05;13.90;;;;;;;8.65;95.11;102462.84;5113023;28;20394;-47
2022/07/06 03:00:05;;;;;;;25.55;14.43;;;;;;;8.71;95.63;102468.38;5113652;28;20089;-46
2022/07/06 03:02:31;;;;;;;27.45;13.95;;;;;;;8.73;95.17;102466.81;5112822;28;20047;-47
2022/07/06 03:04:56;;;;;;;24.55;14.25;;;;;;;8.70;94.70;102469.16;5112381;28;20023;-47
2022/07/06 03:07:22;;;;;;;28.88;15.15;;;;;;;8.70;94.89;102467.50;5112915;28;20030;-48
2022/07/06 03:09:47;;;;;;;24.83;13.88;;;;;;;8.77;95.24;102473.03;5112949;28;20023;-47
2022/07/06 03:12:12;;;;;;;25.10;13.95;;;;;;;8.79;95.49;102477.50;5111805;28;20075;-48
2022/07/06 03:14:37;;;;;;;23.45;14.13;;;;;;;8.78;94.93;102473.13;5112731;28;20483;-47
2022/07/06 03:17:03;;;;;;;26.50;16.05;;;;;;;8.80;95.00;102473.22;5112493;28;20023;-48
2022/07/06 03:19:28;;;;;;;24.73;15.02;;;;;;;8.78;94.73;102474.78;5111784;28;20024;-47
2022/07/06 03:21:53;;;;;;;26.70;14.73;;;;;;;8.70;94.48;102482.94;5112888;28;20034;-47
2022/07/06 03:24:18;;;;;;;30.17;15.45;;;;;;;8.76;94.82;102473.81;5112417;28;20035;-48
2022/07/06 03:26:44;;;;;;;29.17;16.20;;;;;;;8.75;95.02;102475.50;5111801;28;20031;-44
2022/07/06 03:29:09;;;;;;;24.90;15.30;;;;;;;8.72;94.67;102477.88;5112456;28;20092;-48
2022/07/06 03:31:35;;;;;;;28.38;14.77;;;;;;;8.77;95.49;102470.47;5112698;28;20024;-46
2022/07/06 03:34:00;;;;;;;29.40;15.48;;;;;;;8.78;95.24;102477.38;5111864;28;20023;-47
2022/07/06 03:36:25;;;;;;;32.53;15.60;;;;;;;8.79;95.36;102474.00;5112583;28;20460;-48
2022/07/06 03:38:50;;;;;;;28.30;14.98;;;;;;;8.78;94.95;102478.28;5112623;28;20536;-46
2022/07/06 03:41:16;;;;;;;30.15;15.93;;;;;;;8.84;95.57;102473.50;5111579;28;20016;-47
2022/07/06 03:43:41;;;;;;;28.42;16.58;;;;;;;8.89;96.08;102469.53;5112342;28;20027;-47
2022/07/06 03:46:06;;;;;;;28.40;15.40;;;;;;;8.90;95.59;102466.16;5110939;28;20032;-48
2022/07/06 03:48:32;;;;;;;26.55;15.00;;;;;;;8.90;95.51;102465.28;5111666;28;20379;-46
2022/07/06 03:50:57;;;;;;;29.55;15.25;;;;;;;8.95;95.47;102463.00;5112416;28;20027;-47
2022/07/06 03:53:22;;;;;;;26.73;15.07;;;;;;;8.93;95.33;102467.16;5112086;28;20085;-45
2022/07/06 03:56:27;;;;;;;34.55;15.65;;;;;;;8.99;95.69;102471.00;5111647;28;20467;-46
2022/07/06 03:58:33;;;;;;;29.95;16.90;;;;;;;9.04;95.70;102479.03;5111997;28;20031;-48
2022/07/06 04:00:59;;;;;;;25.85;15.52;;;;;;;8.97;94.77;102471.69;5075793;28;1017104;-46
2022/07/06 04:03:24;;;;;;;25.35;15.27;;;;;;;8.97;94.98;102472.56;5112935;28;20035;-47
2022/07/06 04:05:49;;;;;;;32.75;15.88;;;;;;;9.01;95.81;102471.09;5113136;28;20059;-47
2022/07/06 04:08:15;;;;;;;28.52;15.18;;;;;;;9.09;96.04;102471.56;5112139;28;20391;-48
2022/07/06 04:10:40;;;;;;;35.30;16.17;;;;;;;9.02;95.18;102465.16;5112800;28;20031;-46
2022/07/06 04:13:05;;;;;;;28.88;14.13;;;;;;;9.03;95.14;102472.09;5112740;28;20409;-47
2022/07/06 04:15:30;;;;;;;26.38;16.15;;;;;;;9.04;95.25;102471.31;5112243;28;20026;-47
2022/07/06 04:17:56;;;;;;;30.42;15.95;;;;;;;9.05;95.34;102462.75;5113120;28;20046;-46
2022/07/06 04:20:23;;;;;;;27.20;14.60;;;;;;;9.04;95.60;102463.59;5112854;28;20039;-48
2022/07/06 04:22:49;;;;;;;25.73;15.35;;;;;;;9.04;95.63;102456.75;5112181;28;20020;-48
2022/07/06 04:25:14;;;;;;;24.92;14.93;;;;;;;9.07;96.00;102456.06;5112728;28;20027;-47
2022/07/06 04:27:40;;;;;;;25.85;14.68;;;;;;;9.01;95.13;102456.56;5112672;28;20024;-46
2022/07/06 04:30:07;;;;;;;29.95;15.07;;;;;;;9.04;95.47;102453.31;5112026;28;20023;-48
2022/07/06 04:32:32;;;;;;;29.42;16.30;;;;;;;8.97;95.33;102461.41;5112592;28;20043;-46
2022/07/06 04:34:58;;;;;;;30.42;15.30;;;;;;;8.99;95.50;102457.28;5112783;28;20063;-46
2022/07/06 04:37:23;;;;;;;28.02;14.68;;;;;;;8.97;95.67;102453.69;5111679;28;20494;-47
2022/07/06 04:39:48;;;;;;;33.25;16.33;;;;;;;8.98;95.81;102466.66;5112746;28;20104;-47
2022/07/06 04:42:13;;;;;;;29.05;14.68;;;;;;;8.92;95.73;102458.53;5112402;28;20069;-47
2022/07/06 04:44:39;;;;;;;25.10;14.90;;;;;;;8.89;95.79;102459.25;5111752;28;20041;-45
2022/07/06 04:47:04;;;;;;;26.92;15.27;;;;;;;8.83;95.75;102456.31;5112438;28;20399;-46
2022/07/06 04:49:29;;;;;;;32.13;16.65;;;;;;;8.86;96.07;102455.63;5112625;28;20076;-46
2022/07/06 04:51:54;;;;;;;31.55;15.63;;;;;;;8.86;96.19;102465.91;5111954;28;20401;-48
2022/07/06 04:54:20;;;;;;;25.67;15.32;;;;;;;8.94;96.77;102464.69;5112356;28;20038;-46
2022/07/06 04:56:46;;;;;;;32.25;16.42;;;;;;;8.98;96.70;102458.06;5112615;28;20028;-46
2022/07/06 04:59:12;;;;;;;29.58;16.10;;;;;;;9.08;97.12;102462.97;5115486;28;20080;-48
2022/07/06 05:01:37;;;;;;;29.80;16.00;;;;;;;9.06;96.91;102461.97;5115815;28;20039;-45
2022/07/06 05:04:02;;;;;;;30.10;16.30;;;;;;;9.12;96.80;102466.63;5116068;28;20027;-48
2022/07/06 05:06:28;;;;;;;25.42;16.27;;;;;;;9.13;96.78;102464.16;5115320;28;20015;-47
2022/07/06 05:08:53;;;;;;;31.13;16.45;;;;;;;9.18;96.66;102467.91;5115940;28;20027;-48
2022/07/06 05:11:18;;;;;;;29.52;16.35;;;;;;;9.14;97.21;102472.75;5115016;28;20031;-48
2022/07/06 05:13:43;;;;;;;30.95;17.48;;;;;;;9.19;97.41;102477.41;5115779;28;20020;-47
2022/07/06 05:16:09;;;;;;;32.10;17.40;;;;;;;9.30;97.35;102477.16;5115885;28;20028;-47
2022/07/06 05:18:34;;;;;;;30.95;17.05;;;;;;;9.36;97.30;102483.56;5115072;28;20063;-50
2022/07/06 05:20:59;;;;;;;27.67;17.33;;;;;;;9.50;97.67;102479.25;5115581;28;20035;-48
2022/07/06 05:23:25;;;;;;;32.22;16.88;;;;;;;9.62;96.92;102483.34;5115657;28;20383;-43
2022/07/06 05:25:50;;;;;;;34.72;17.67;;;;;;;9.70;96.58;102485.59;5114954;28;20471;-47
2022/07/06 05:28:15;;;;;;;28.70;16.40;;;;;;;9.76;96.60;102486.75;5115708;28;20387;-48
2022/07/06 05:30:40;;;;;;;35.65;16.10;;;;;;;9.84;96.28;102488.97;5115614;28;20019;-50
2022/07/06 05:33:06;;;;;;;28.58;15.93;;;;;;;9.95;96.02;102486.16;5114715;28;20109;-48
2022/07/06 05:35:31;;;;;;;28.90;15.68;;;;;;;10.05;95.80;102483.31;5115363;28;20077;-46
2022/07/06 05:37:56;;;;;;;26.15;15.40;;;;;;;10.14;96.06;102478.69;5115471;28;20024;-48
2022/07/06 05:40:21;;;;;;;29.55;15.82;;;;;;;10.20;96.25;102481.63;5114360;28;20056;-45
2022/07/06 05:42:47;;;;;;;28.98;15.63;;;;;;;10.32;95.97;102477.97;5115787;28;20028;-45
2022/07/06 05:45:13;;;;;;;27.95;14.90;;;;;;;10.44;94.95;102478.69;5115374;28;20440;-45
2022/07/06 05:50:22;;;;;;;27.38;13.98;;;;;;;10.63;94.50;102488.34;5115384;28;20084;-47
2022/07/06 05:52:58;;;;;;;31.55;15.63;;;;;;;10.77;94.78;102491.69;5115150;28;20383;-48
2022/07/06 05:55:24;;;;;;;26.35;14.10;;;;;;;10.99;94.26;102491.16;5114313;28;20028;-47
2022/07/06 05:57:50;;;;;;;25.55;14.02;;;;;;;11.15;93.26;102487.72;5114971;28;20057;-48
2022/07/06 06:00:16;;;;;;;23.92;14.00;;;;;;;11.32;93.11;102492.91;5114809;28;20024;-48
2022/07/06 06:02:42;;;;;;;21.27;12.70;;;;;;;11.47;92.77;102493.69;5114081;28;20526;-48
2022/07/06 06:05:09;;;;;;;21.73;13.05;;;;;;;11.62;93.70;102488.47;5114893;28;20030;-48
2022/07/06 06:07:36;;;;;;;24.00;12.27;;;;;;;11.85;91.62;102489.63;5113950;28;20027;-48
2022/07/06 06:10:04;;;;;;;24.92;12.80;;;;;;;12.14;92.47;102492.81;5113911;28;20027;-48
2022/07/06 06:12:29;;;;;;;22.65;12.18;;;;;;;12.50;90.71;102503.19;5114970;28;20027;-48
2022/07/06 06:14:54;;;;;;;23.50;12.18;;;;;;;12.95;93.42;102494.03;5113995;28;20088;-48
2022/07/06 06:17:19;;;;;;;23.55;12.00;;;;;;;13.28;90.15;102492.09;5113955;28;20451;-47
2022/07/06 06:19:45;;;;;;;21.45;11.23;;;;;;;13.74;89.75;102493.28;5114199;28;20034;-47
2022/07/06 06:22:10;;;;;;;11.45;6.75;;;;;;;14.13;86.47;102489.72;5113492;28;20032;-48
2022/07/06 06:24:35;;;;;;;13.98;6.65;;;;;;;14.39;85.01;102492.50;5114693;28;20032;-46
2022/07/06 06:27:00;;;;;;;13.52;5.63;;;;;;;14.58;85.76;102496.72;5114337;28;20034;-48
2022/07/06 06:29:26;;;;;;;9.95;3.17;;;;;;;14.59;77.17;102491.56;5113622;28;20032;-47
2022/07/06 06:31:51;;;;;;;7.82;3.00;;;;;;;14.72;77.84;102490.38;5114480;28;20024;-48
2022/07/06 06:34:16;;;;;;;7.63;3.40;;;;;;;14.89;79.31;102495.34;5114243;28;20020;-48
2022/07/06 06:36:42;;;;;;;6.53;3.10;;;;;;;14.95;76.56;102493.84;5113269;28;20086;-47
2022/07/06 06:39:07;;;;;;;7.20;3.15;;;;;;;14.96;74.73;102489.53;5113964;28;20035;-48
2022/07/06 06:41:32;;;;;;;8.02;2.85;;;;;;;15.11;74.37;102494.44;5114247;28;20386;-47
2022/07/06 06:43:58;;;;;;;6.22;2.35;;;;;;;15.27;76.60;102491.56;5113445;28;20026;-48
2022/07/06 06:46:23;;;;;;;6.53;2.50;;;;;;;15.42;75.33;102493.81;5113930;28;20027;-49
2022/07/06 06:48:48;;;;;;;8.65;2.58;;;;;;;15.62;76.16;102491.03;5114036;28;20069;-48
2022/07/06 06:51:13;;;;;;;7.18;2.28;;;;;;;15.57;70.97;102501.31;5112911;28;20027;-48
2022/07/06 06:53:39;;;;;;;10.38;2.33;;;;;;;15.54;70.99;102500.31;5113994;28;20505;-48
2022/07/06 06:56:04;;;;;;;7.03;2.40;;;;;;;15.60;70.97;102508.31;5113917;28;20023;-47
2022/07/06 06:58:29;;;;;;;8.43;2.28;;;;;;;15.66;69.79;102503.34;5113109;28;20035;-47
2022/07/06 07:00:55;;;;;;;6.97;2.40;;;;;;;15.74;69.64;102504.47;5113714;28;20040;-47
2022/07/06 07:03:20;;;;;;;8.05;2.50;;;;;;;15.82;69.74;102506.50;5113725;28;20027;-47
2022/07/06 07:05:45;;;;;;;9.45;2.40;;;;;;;15.89;69.51;102505.88;5113393;28;20020;-46
2022/07/06 07:08:11;;;;;;;6.53;2.13;;;;;;;15.94;68.12;102513.00;5113411;28;20023;-47
2022/07/06 07:10:36;;;;;;;13.15;2.45;;;;;;;15.92;69.81;102508.56;5113726;28;20568;-48
2022/07/06 07:13:01;;;;;;;9.82;2.75;;;;;;;15.96;69.02;102507.88;5112691;28;20035;-48
2022/07/06 07:15:26;;;;;;;7.32;2.55;;;;;;;15.93;69.22;102512.94;5113623;28;20528;-47
2022/07/06 07:17:52;;;;;;;5.55;2.40;;;;;;;15.77;71.17;102508.91;5112545;28;20458;-43
2022/07/06 07:20:17;;;;;;;10.13;2.40;;;;;;;15.61;69.21;102507.50;5113129;28;20084;-47
2022/07/06 07:22:42;;;;;;;6.55;2.40;;;;;;;15.47;67.98;102510.47;5113468;28;20020;-46
2022/07/06 07:25:08;;;;;;;6.10;2.08;;;;;;;15.41;70.06;102512.84;5112741;28;20024;-47
2022/07/06 07:27:34;;;;;;;10.15;3.10;;;;;;;15.37;70.41;102518.75;5113474;28;20035;-46
2022/07/06 07:29:59;;;;;;;8.60;2.40;;;;;;;15.36;71.49;102516.97;5113428;28;20035;-43
2022/07/06 07:32:25;;;;;;;9.57;2.50;;;;;;;15.32;70.21;102512.50;5112557;28;20020;-49
2022/07/06 07:34:50;;;;;;;5.65;2.50;;;;;;;15.40;70.40;102508.50;5113334;28;20028;-47
2022/07/06 07:37:15;;;;;;;12.25;2.47;;;;;;;15.38;69.59;102514.47;5113023;28;20032;-48
2022/07/06 07:39:40;;;;;;;4.90;1.98;;;;;;;15.33;68.47;102516.88;5112674;28;20387;-48
2022/07/06 07:42:06;;;;;;;6.13;1.35;;;;;;;15.37;66.97;102517.88;5113331;28;20371;-49
2022/07/06 07:44:31;;;;;;;6.28;1.80;;;;;;;15.36;65.91;102514.38;5113153;28;20122;-47
2022/07/06 07:46:56;;;;;;;7.05;2.03;;;;;;;15.47;67.12;102513.06;5112493;28;20034;-48
2022/07/06 07:49:21;;;;;;;6.40;1.60;;;;;;;15.57;67.15;102510.78;5113057;28;20027;-48
2022/07/06 07:51:48;;;;;;;10.82;1.92;;;;;;;15.65;65.18;102509.38;5113070;28;20019;-48
2022/07/06 07:54:13;;;;;;;6.38;1.77;;;;;;;15.68;67.04;102506.88;5112429;28;20020;-47
2022/07/06 07:56:40;;;;;;;5.75;1.85;;;;;;;15.78;66.92;102516.75;5112995;28;20023;-47
2022/07/06 07:59:06;;;;;;;8.18;2.35;;;;;;;15.87;66.78;102515.31;5112802;28;20498;-49
2022/07/06 08:01:31;;;;;;;4.97;1.88;;;;;;;15.96;65.78;102513.06;5112000;28;20043;-48
2022/07/06 08:03:57;;;;;;;6.82;1.90;;;;;;;16.04;66.96;102506.41;5113190;28;20042;-48
2022/07/06 08:06:22;;;;;;;6.90;2.13;;;;;;;16.25;64.37;102501.00;5112612;28;20098;-46
2022/07/06 08:08:48;;;;;;;10.88;2.00;;;;;;;16.33;65.66;102500.38;5112377;28;20428;-49
2022/07/06 08:11:13;;;;;;;9.38;2.35;;;;;;;16.52;64.09;102507.06;5112923;28;20051;-47
2022/07/06 08:13:38;;;;;;;6.22;2.20;;;;;;;16.69;62.68;102497.19;5113001;28;20027;-48
2022/07/06 08:16:04;;;;;;;7.40;2.20;;;;;;;16.68;61.85;102498.91;5112106;28;20020;-47
2022/07/06 08:18:29;;;;;;;12.45;2.65;;;;;;;16.86;65.01;102501.19;5112745;28;20110;-48
2022/07/06 08:20:56;;;;;;;8.15;1.80;;;;;;;17.15;63.70;102495.97;5112863;28;20024;-47
2022/07/06 08:23:22;;;;;;;7.13;1.90;;;;;;;17.40;64.18;102494.06;5112144;28;20029;-48
2022/07/06 08:25:47;;;;;;;8.52;2.22;;;;;;;17.39;61.63;102502.72;5112908;28;20081;-47
2022/07/06 08:28:12;;;;;;;8.48;2.28;;;;;;;17.27;62.79;102505.84;5111918;28;20030;-48
2022/07/06 08:30:37;;;;;;;5.60;2.30;;;;;;;17.33;62.36;102493.00;5112762;28;20024;-48
2022/07/06 08:33:03;;;;;;;4.20;1.88;;;;;;;17.48;61.41;102491.66;5115150;28;20031;-48
2022/07/06 08:35:28;;;;;;;7.95;1.77;;;;;;;17.59;61.42;102492.84;5115803;28;20371;-46
2022/07/06 08:37:54;;;;;;;6.20;1.60;;;;;;;17.65;60.68;102482.59;5116529;28;20102;-48
2022/07/06 08:40:19;;;;;;;6.40;2.08;;;;;;;17.85;61.60;102484.81;5116562;28;20239;-48
2022/07/06 08:42:48;;;;;;;6.90;1.95;;;;;;;17.96;58.38;102486.00;5115611;28;20099;-49
2022/07/06 08:45:13;;;;;;;6.82;1.33;;;;;;;18.16;58.41;102483.88;5116305;28;20016;-49
2022/07/06 08:47:41;;;;;;;5.68;1.10;;;;;;;18.37;57.67;102487.84;5116229;28;20080;-47
2022/07/06 08:50:08;;;;;;;4.68;1.45;;;;;;;18.50;54.28;102486.41;5115256;28;20023;-48
2022/07/06 08:52:34;;;;;;;3.80;1.20;;;;;;;18.74;53.76;102481.72;5116144;28;20536;-49
2022/07/06 08:55:00;;;;;;;5.88;1.25;;;;;;;18.91;52.90;102478.63;5116411;28;20050;-45
2022/07/06 08:57:25;;;;;;;7.15;1.80;;;;;;;18.83;53.58;102475.81;5115685;28;20051;-48
2022/07/06 08:59:51;;;;;;;9.90;1.40;;;;;;;18.99;54.73;102471.84;5116202;28;20027;-49
2022/07/06 09:02:17;;;;;;;5.78;1.50;;;;;;;18.85;54.05;102473.25;5115873;28;20127;-45
2022/07/06 09:04:43;;;;;;;6.20;1.40;;;;;;;18.77;56.58;102480.91;5115305;28;20036;-48
2022/07/06 09:07:09;;;;;;;8.55;1.60;;;;;;;18.75;56.67;102478.28;5116183;28;20094;-46
2022/07/06 09:09:37;;;;;;;13.52;1.23;;;;;;;18.90;52.46;102476.88;5116017;28;20099;-48
2022/07/06 09:12:03;;;;;;;6.13;1.27;;;;;;;19.08;52.93;102476.38;5115093;28;20032;-47
2022/07/06 09:14:29;;;;;;;3.13;1.00;;;;;;;19.26;52.32;102481.06;5115905;28;20097;-48
2022/07/06 09:17:07;;;;;;;4.65;0.95;;;;;;;19.40;50.42;102479.59;5115797;28;20035;-49
2022/07/06 09:19:34;;;;;;;3.53;1.10;;;;;;;19.52;49.43;102478.97;5115176;28;20027;-48
2022/07/06 09:22:00;;;;;;;3.70;1.10;;;;;;;19.57;49.59;102481.66;5115600;28;20478;-44
2022/07/06 09:24:26;;;;;;;6.38;1.30;;;;;;;19.71;52.93;102485.41;5115002;28;20028;-44
2022/07/06 09:26:54;;;;;;;7.85;1.10;;;;;;;19.60;49.86;102486.06;5115770;28;20024;-47
2022/07/06 09:29:30;;;;;;;6.03;1.27;;;;;;;19.39;50.70;102493.56;5115602;28;20031;-45
2022/07/06 09:31:57;;;;;;;8.95;1.20;;;;;;;19.28;52.50;102489.84;5114825;28;20032;-47
2022/07/06 09:34:23;;;;;;;3.95;1.08;;;;;;;19.52;51.09;102485.94;5115531;28;20061;-45
2022/07/06 09:36:50;;;;;;;5.68;1.13;;;;;;;19.68;49.56;102485.34;5115578;28;20055;-48
2022/07/06 09:39:29;;;;;;;3.80;0.90;;;;;;;19.68;46.83;102490.59;5114580;28;20110;-49
2022/07/06 09:41:59;;;;;;;5.40;1.35;;;;;;;20.15;46.72;102494.03;5115494;28;20269;-48
2022/07/06 09:44:30;;;;;;;4.25;0.90;;;;;;;20.60;46.38;102486.84;5115395;28;20024;-49
2022/07/06 09:47:02;;;;;;;4.07;0.90;;;;;;;20.86;45.86;102485.50;5114751;28;20051;-48
2022/07/06 09:49:28;;;;;;;3.53;0.90;;;;;;;20.79;45.39;102490.66;5115266;28;20439;-48
2022/07/06 09:51:59;;;;;;;3.97;0.90;;;;;;;20.57;43.27;102500.78;5115304;28;20020;-49
2022/07/06 09:54:25;;;;;;;4.40;0.90;;;;;;;20.58;45.02;102491.16;5114282;28;20026;-45
2022/07/06 09:56:51;;;;;;;2.75;0.90;;;;;;;20.50;43.28;102496.31;5115052;28;20028;-46
2022/07/06 09:59:23;;;;;;;4.95;1.02;;;;;;;20.49;45.06;102497.16;5115260;28;20047;-49
2022/07/06 10:01:54;;;;;;;7.40;1.15;;;;;;;20.56;45.11;102486.78;5114179;28;20107;-48
2022/07/06 10:04:20;;;;;;;7.15;1.08;;;;;;;20.67;47.28;102497.44;5114969;28;20027;-48
2022/07/06 10:06:46;;;;;;;8.43;0.95;;;;;;;20.57;45.81;102503.41;5113951;28;20092;-46
2022/07/06 10:09:13;;;;;;;3.67;0.93;;;;;;;20.80;44.39;102502.84;5114586;28;20471;-48
2022/07/06 10:12:07;;;;;;;3.35;0.88;;;;;;;20.96;46.31;102498.72;5114994;28;20080;-48
2022/07/06 10:14:33;;;;;;;3.40;0.82;;;;;;;21.05;41.97;102498.81;5111030;28;20038;-49
2022/07/06 10:17:01;;;;;;;7.07;1.10;;;;;;;21.26;42.92;102492.94;5114731;28;20027;-49
2022/07/06 10:19:28;;;;;;;6.07;1.00;;;;;;;21.25;40.61;102501.66;5114593;28;20440;-46
2022/07/06 10:21:53;;;;;;;3.65;0.70;;;;;;;21.35;42.18;102500.91;5113893;28;20463;-47
2022/07/06 10:24:20;;;;;;;4.72;0.90;;;;;;;21.30;43.95;102497.34;5114574;28;20092;-49
2022/07/06 10:26:46;;;;;;;8.20;1.13;;;;;;;21.32;41.30;102497.41;5114681;28;20043;-45
2022/07/06 10:29:12;;;;;;;4.55;0.90;;;;;;;21.05;41.98;102504.94;5113405;28;20031;-46
2022/07/06 10:31:40;;;;;;;4.38;0.88;;;;;;;20.84;42.30;102502.06;5114355;28;20103;-48
2022/07/06 10:34:09;;;;;;;5.35;0.75;;;;;;;20.82;43.86;102496.78;5114273;28;20028;-49
2022/07/06 10:36:42;;;;;;;6.05;1.00;;;;;;;20.79;43.26;102501.13;5113625;28;20027;-49
2022/07/06 10:41:52;;;;;;;5.28;1.00;;;;;;;21.24;41.93;102493.78;5113817;28;20482;-49
2022/07/06 10:44:20;;;;;;;6.45;0.88;;;;;;;21.25;41.80;102495.56;5114190;28;20024;-48
2022/07/06 10:46:59;;;;;;;7.03;1.02;;;;;;;21.24;41.58;102489.44;5113988;28;20031;-49
2022/07/06 10:49:26;;;;;;;2.15;0.73;;;;;;;21.52;43.07;102494.97;5113529;28;20020;-48
2022/07/06 10:51:52;;;;;;;3.03;0.68;;;;;;;21.57;40.06;102495.94;5114217;28;20032;-47
2022/07/06 10:54:19;;;;;;;3.13;0.70;;;;;;;21.24;40.30;102491.16;5113760;28;20455;-49
2022/07/06 10:56:50;;;;;;;3.45;0.88;;;;;;;21.15;41.02;102500.69;5112791;28;20043;-48
2022/07/06 10:59:18;;;;;;;1.63;0.70;;;;;;;21.26;40.98;102498.19;5113783;28;20019;-48
2022/07/06 11:02:14;;;;;;;3.08;0.70;;;;;;;21.76;43.19;102493.50;5113717;28;20052;-49
2022/07/06 11:04:42;;;;;;;1.17;0.70;;;;;;;21.97;40.66;102492.81;5113088;28;20031;-49
2022/07/06 11:07:12;;;;;;;3.22;0.80;;;;;;;21.89;39.53;102484.88;5113635;28;20272;-45
2022/07/06 11:09:38;;;;;;;4.00;0.98;;;;;;;22.40;38.16;102485.28;5113679;28;20059;-47
2022/07/06 11:12:20;;;;;;;6.93;1.23;;;;;;;22.73;38.64;102490.72;5112631;28;20474;-49
2022/07/06 11:14:50;;;;;;;2.72;0.73;;;;;;;22.69;38.05;102495.06;5113760;28;20116;-48
2022/07/06 11:17:16;;;;;;;5.80;0.73;;;;;;;22.56;37.38;102482.75;5112548;28;20479;-49
2022/07/06 11:20:11;;;;;;;5.93;0.80;;;;;;;22.96;38.72;102488.19;5113556;28;20100;-48
2022/07/06 11:22:38;;;;;;;4.43;1.08;;;;;;;23.34;40.27;102490.97;5095990;28;20061;-49
2022/07/06 11:25:05;;;;;;;6.88;1.20;;;;;;;23.54;38.09;102489.25;5112661;28;20506;-50